Time;durP1;ratioP1;P1;durP2;ratioP2;P2;SDS_P1;SDS_P2;PMS_P1;PMS_P2;Temp;Humidity;BMP_temperature;BMP_pressure;BME280_temperature;BME280_humidity;BME280_pressure;Samples;Min_cycle;Max_cycle;Signal;HPM_P1;HPM_P2
2022/11/07 00:02:11;;;;;;;2.08;0.98;;;;;;;;;;10621405;27;20045;-79
2022/11/07 00:07:15;;;;;;;1.48;0.80;;;;;;;;;;10619255;27;20035;-77
2022/11/07 00:12:19;;;;;;;2.03;0.75;;;;;;;;;;10619241;27;20062;-79
2022/11/07 00:17:21;;;;;;;0.60;0.40;;;;;;;;;;10623243;27;20039;-78
2022/11/07 00:22:24;;;;;;;1.23;0.70;;;;;;;;;;10603494;27;20455;-78
2022/11/07 00:27:28;;;;;;;1.02;0.73;;;;;;;;;;10618568;27;20039;-78
2022/11/07 00:32:38;;;;;;;1.33;0.85;;;;;;;;;;10621351;27;20039;-78
2022/11/07 00:37:41;;;;;;;0.40;0.40;;;;;;;;;;10614289;27;20073;-79
2022/11/07 00:42:45;;;;;;;1.00;0.70;;;;;;;;;;10621367;27;20399;-79
2022/11/07 00:47:47;;;;;;;0.98;0.60;;;;;;;;;;10620789;27;20069;-78
2022/11/07 00:52:50;;;;;;;0.52;0.52;;;;;;;;;;10622920;27;20488;-80
2022/11/07 00:57:54;;;;;;;1.00;0.90;;;;;;;;;;10623889;27;20069;-79
2022/11/07 01:08:13;;;;;;;1.00;0.68;;;;;;;;;;10613256;27;20046;-79
2022/11/07 01:13:17;;;;;;;0.93;0.80;;;;;;;;;;10620697;27;20035;-78
2022/11/07 01:18:20;;;;;;;0.88;0.77;;;;;;;;;;10616734;27;20040;-79
2022/11/07 01:23:24;;;;;;;2.40;0.80;;;;;;;;;;10618192;27;20118;-79
2022/11/07 01:28:28;;;;;;;2.03;0.90;;;;;;;;;;10596303;27;20046;-79
2022/11/07 01:33:31;;;;;;;3.20;1.13;;;;;;;;;;10618108;27;20039;-78
2022/11/07 01:38:33;;;;;;;0.68;0.50;;;;;;;;;;10614673;27;20298;-79
2022/11/07 01:43:44;;;;;;;1.25;0.73;;;;;;;;;;10599440;28;20070;-79
2022/11/07 01:48:49;;;;;;;1.05;0.65;;;;;;;;;;10611342;28;20467;-79
2022/11/07 01:53:53;;;;;;;1.35;0.95;;;;;;;;;;10616359;28;20039;-79
2022/11/07 01:58:58;;;;;;;1.38;0.80;;;;;;;;;;10617544;28;20133;-79
2022/11/07 02:04:02;;;;;;;1.02;0.45;;;;;;;;;;10611122;28;20126;-79
2022/11/07 02:09:05;;;;;;;3.60;0.97;;;;;;;;;;10614882;28;20480;-79
2022/11/07 02:14:13;;;;;;;1.97;0.90;;;;;;;;;;10624283;27;20043;-79
2022/11/07 02:19:18;;;;;;;1.00;0.70;;;;;;;;;;10624504;27;20043;-79
2022/11/07 02:24:29;;;;;;;1.33;0.68;;;;;;;;;;10618704;27;20463;-79
2022/11/07 02:29:33;;;;;;;1.63;0.90;;;;;;;;;;10622887;27;20039;-80
2022/11/07 02:34:36;;;;;;;0.77;0.75;;;;;;;;;;10624996;27;20039;-79
2022/11/07 02:39:50;;;;;;;0.52;0.52;;;;;;;;;;10619877;27;20039;-79
2022/11/07 02:44:53;;;;;;;0.98;0.82;;;;;;;;;;10624999;27;20050;-79
2022/11/07 02:49:56;;;;;;;0.50;0.50;;;;;;;;;;10603872;27;20038;-79
2022/11/07 02:55:00;;;;;;;0.40;0.32;;;;;;;;;;10621511;27;20043;-79
2022/11/07 03:00:02;;;;;;;;;;;;;;;;;;10621804;27;20118;-79
2022/11/07 03:05:06;;;;;;;1.13;0.50;;;;;;;;;;10616746;27;19926;-79
2022/11/07 03:10:11;;;;;;;1.42;0.95;;;;;;;;;;10622279;27;20027;-79
2022/11/07 03:15:14;;;;;;;1.45;0.85;;;;;;;;;;10623570;27;20243;-79
2022/11/07 03:20:17;;;;;;;0.90;0.55;;;;;;;;;;10618121;27;20036;-79
2022/11/07 03:25:21;;;;;;;2.17;1.58;;;;;;;;;;10623312;27;20051;-79
2022/11/07 03:30:24;;;;;;;0.82;0.35;;;;;;;;;;10626892;27;20399;-78
2022/11/07 03:35:27;;;;;;;0.63;0.60;;;;;;;;;;10631126;27;20122;-80
2022/11/07 03:40:32;;;;;;;0.40;0.40;;;;;;;;;;10623818;27;20032;-80
2022/11/07 03:45:34;;;;;;;3.00;0.80;;;;;;;;;;10634298;27;20072;-80
2022/11/07 03:50:37;;;;;;;1.52;0.73;;;;;;;;;;10628141;27;20039;-79
2022/11/07 03:55:42;;;;;;;2.83;0.80;;;;;;;;;;10620732;27;20130;-80
2022/11/07 04:00:44;;;;;;;0.90;0.40;;;;;;;;;;10603003;27;20061;-79
2022/11/07 04:05:47;;;;;;;1.15;0.90;;;;;;;;;;10594991;27;20043;-80
2022/11/07 04:10:51;;;;;;;2.22;0.90;;;;;;;;;;10599482;27;20042;-79
2022/11/07 04:21:25;;;;;;;1.42;0.88;;;;;;;;;;10615307;27;20054;-80
2022/11/07 04:31:49;;;;;;;0.63;0.55;;;;;;;;;;10620214;27;20043;-79
2022/11/07 04:36:52;;;;;;;1.70;1.05;;;;;;;;;;10616183;27;20038;-79
2022/11/07 04:41:56;;;;;;;1.02;0.90;;;;;;;;;;10598758;27;20096;-78
2022/11/07 04:46:58;;;;;;;0.15;0.15;;;;;;;;;;10613620;27;20043;-79
2022/11/07 04:52:01;;;;;;;2.88;0.93;;;;;;;;;;10618874;27;20043;-80
2022/11/07 04:57:07;;;;;;;1.38;0.75;;;;;;;;;;10611373;27;20125;-78
2022/11/07 05:02:11;;;;;;;1.55;0.47;;;;;;;;;;10600129;27;20046;-78
2022/11/07 05:07:13;;;;;;;2.20;0.83;;;;;;;;;;10615013;27;20130;-79
2022/11/07 05:12:17;;;;;;;2.72;0.55;;;;;;;;;;10600104;27;20526;-78
2022/11/07 05:17:20;;;;;;;;;;;;;;;;;;10619083;27;20047;-79
2022/11/07 05:27:56;;;;;;;2.22;1.02;;;;;;;;;;10618181;27;20047;-80
2022/11/07 05:32:58;;;;;;;2.90;1.15;;;;;;;;;;10618190;27;20041;-78
2022/11/07 05:38:02;;;;;;;1.25;0.80;;;;;;;;;;10615914;27;20036;-79
2022/11/07 05:43:07;;;;;;;1.85;0.98;;;;;;;;;;10616301;28;20042;-79
2022/11/07 05:48:11;;;;;;;0.93;0.80;;;;;;;;;;10618635;27;20147;-79
2022/11/07 05:53:14;;;;;;;3.50;1.30;;;;;;;;;;10626384;27;20043;-77
2022/11/07 05:58:19;;;;;;;2.92;0.70;;;;;;;;;;10621399;27;20043;-78
2022/11/07 06:03:22;;;;;;;2.13;0.95;;;;;;;;;;10620238;27;20506;-78
2022/11/07 06:08:25;;;;;;;3.10;1.38;;;;;;;;;;10623062;27;20078;-79
2022/11/07 06:13:29;;;;;;;2.85;1.58;;;;;;;;;;10625322;27;20047;-78
2022/11/07 06:18:36;;;;;;;2.40;0.90;;;;;;;;;;10620758;27;20058;-78
2022/11/07 06:23:43;;;;;;;3.28;1.20;;;;;;;;;;10627811;27;20492;-79
2022/11/07 06:28:47;;;;;;;3.15;1.10;;;;;;;;;;10621257;27;20073;-79
2022/11/07 06:33:50;;;;;;;2.65;1.40;;;;;;;;;;10630641;27;20038;-79
2022/11/07 06:38:53;;;;;;;5.60;1.40;;;;;;;;;;10630125;27;20039;-79
2022/11/07 06:43:57;;;;;;;0.98;0.93;;;;;;;;;;10627571;27;20369;-80
2022/11/07 06:48:59;;;;;;;;;;;;;;;;;;10608153;27;20039;-79
2022/11/07 06:54:03;;;;;;;1.70;1.15;;;;;;;;;;10625238;27;19919;-81
2022/11/07 06:59:07;;;;;;;1.25;1.15;;;;;;;;;;10621663;27;20475;-80
2022/11/07 07:04:10;;;;;;;2.97;1.38;;;;;;;;;;10623593;27;20046;-80
2022/11/07 07:09:12;;;;;;;2.58;1.50;;;;;;;;;;10611221;27;20054;-79
2022/11/07 07:14:16;;;;;;;8.25;2.42;;;;;;;;;;10596555;27;20034;-79
2022/11/07 07:19:21;;;;;;;2.53;1.80;;;;;;;;;;10619832;27;20035;-79
2022/11/07 07:24:24;;;;;;;2.60;1.40;;;;;;;;;;10616745;27;20043;-79
2022/11/07 07:29:28;;;;;;;3.63;1.40;;;;;;;;;;10612898;27;20112;-79
2022/11/07 07:34:30;;;;;;;2.75;1.77;;;;;;;;;;10611936;27;20295;-78
2022/11/07 07:39:33;;;;;;;3.60;2.00;;;;;;;;;;10614548;27;20038;-79
2022/11/07 07:44:36;;;;;;;;;;;;;;;;;;10613762;27;20497;-78
2022/11/07 07:49:40;;;;;;;3.92;1.67;;;;;;;;;;10601510;27;19935;-78
2022/11/07 07:54:43;;;;;;;4.60;1.73;;;;;;;;;;10608837;27;20031;-79
2022/11/07 07:59:48;;;;;;;2.90;1.67;;;;;;;;;;10616410;27;20092;-78
2022/11/07 08:05:03;;;;;;;2.72;1.60;;;;;;;;;;10615460;27;20118;-79
2022/11/07 08:10:12;;;;;;;3.20;1.75;;;;;;;;;;10604702;27;20405;-79
2022/11/07 08:15:35;;;;;;;2.90;1.60;;;;;;;;;;10610037;27;20039;-79
2022/11/07 08:20:39;;;;;;;4.05;1.50;;;;;;;;;;10610713;27;20053;-80
2022/11/07 08:25:42;;;;;;;2.28;1.75;;;;;;;;;;10593832;27;20078;-77
2022/11/07 08:30:45;;;;;;;4.40;1.60;;;;;;;;;;10613455;27;20150;-77
2022/11/07 08:35:52;;;;;;;1.38;1.23;;;;;;;;;;10611253;27;20053;-77
2022/11/07 08:40:55;;;;;;;1.50;1.40;;;;;;;;;;10619474;27;20062;-76
2022/11/07 08:45:57;;;;;;;2.45;1.40;;;;;;;;;;10606790;27;20122;-77
2022/11/07 08:51:03;;;;;;;2.65;1.70;;;;;;;;;;10582386;27;20130;-77
2022/11/07 08:56:06;;;;;;;2.40;1.60;;;;;;;;;;10580711;27;20047;-77
2022/11/07 09:01:10;;;;;;;2.10;1.40;;;;;;;;;;10591043;27;20039;-77
2022/11/07 09:06:14;;;;;;;2.30;1.58;;;;;;;;;;10578153;27;20048;-79
2022/11/07 09:11:17;;;;;;;1.92;1.50;;;;;;;;;;10566039;27;20457;-77
2022/11/07 09:16:21;;;;;;;1.85;1.63;;;;;;;;;;10590703;27;20047;-78
2022/11/07 09:21:26;;;;;;;1.40;1.30;;;;;;;;;;10590303;27;20524;-78
2022/11/07 09:26:29;;;;;;;3.13;1.58;;;;;;;;;;10580700;27;20567;-79
2022/11/07 09:31:32;;;;;;;2.67;1.33;;;;;;;;;;10594797;27;20127;-78
2022/11/07 09:36:36;;;;;;;2.58;1.70;;;;;;;;;;10591804;27;20043;-79
2022/11/07 09:41:46;;;;;;;2.55;1.70;;;;;;;;;;10581964;27;20095;-77
2022/11/07 09:46:55;;;;;;;2.40;1.50;;;;;;;;;;10564608;28;20412;-78
2022/11/07 09:52:05;;;;;;;2.08;1.50;;;;;;;;;;10581373;27;20036;-79
2022/11/07 09:57:09;;;;;;;1.67;1.58;;;;;;;;;;10597633;28;20553;-77
2022/11/07 10:02:17;;;;;;;2.55;1.30;;;;;;;;;;10593711;27;20044;-78
2022/11/07 10:07:24;;;;;;;2.63;1.50;;;;;;;;;;10587407;27;20032;-78
2022/11/07 10:12:37;;;;;;;2.33;1.08;;;;;;;;;;10588045;28;20027;-79
2022/11/07 10:17:52;;;;;;;1.52;1.42;;;;;;;;;;10585811;28;20131;-78
2022/11/07 10:23:03;;;;;;;1.15;1.00;;;;;;;;;;10596532;28;20043;-78
2022/11/07 10:28:13;;;;;;;2.15;1.63;;;;;;;;;;10591783;28;20027;-76
2022/11/07 10:33:31;;;;;;;4.25;1.55;;;;;;;;;;10598800;27;20035;-77
2022/11/07 10:38:35;;;;;;;4.10;1.40;;;;;;;;;;10602471;27;20039;-77
2022/11/07 10:43:39;;;;;;;1.70;1.60;;;;;;;;;;10602676;27;20035;-77
2022/11/07 10:48:50;;;;;;;1.60;1.50;;;;;;;;;;10610972;27;20044;-78
2022/11/07 10:53:57;;;;;;;1.38;1.27;;;;;;;;;;10609649;27;20035;-79
2022/11/07 10:59:01;;;;;;;4.07;1.50;;;;;;;;;;10602555;27;20548;-78
2022/11/07 11:04:05;;;;;;;2.00;1.40;;;;;;;;;;10608875;27;20122;-77
2022/11/07 11:09:14;;;;;;;2.65;1.20;;;;;;;;;;10596671;27;20035;-77
2022/11/07 11:14:20;;;;;;;1.15;1.00;;;;;;;;;;10599479;27;20051;-77
2022/11/07 11:19:23;;;;;;;2.65;1.00;;;;;;;;;;10596764;27;20044;-78
2022/11/07 11:24:36;;;;;;;2.22;1.17;;;;;;;;;;10599671;27;20042;-78
2022/11/07 11:29:42;;;;;;;1.60;0.90;;;;;;;;;;10603068;27;20046;-78
2022/11/07 11:34:49;;;;;;;1.27;1.17;;;;;;;;;;10631636;27;20042;-78
2022/11/07 11:40:05;;;;;;;1.13;1.10;;;;;;;;;;10620198;27;20108;-79
2022/11/07 11:45:14;;;;;;;3.40;0.88;;;;;;;;;;10631824;27;20092;-78
2022/11/07 11:50:19;;;;;;;2.25;1.38;;;;;;;;;;10633851;27;20434;-78
2022/11/07 11:55:27;;;;;;;1.05;0.68;;;;;;;;;;10614087;27;20039;-78
2022/11/07 12:00:31;;;;;;;1.55;0.95;;;;;;;;;;10599359;27;20042;-78
2022/11/07 12:05:52;;;;;;;1.25;0.70;;;;;;;;;;10615107;27;20039;-78
2022/11/07 12:10:59;;;;;;;1.27;1.05;;;;;;;;;;10629786;27;20062;-79
2022/11/07 12:16:14;;;;;;;1.60;1.40;;;;;;;;;;10635505;27;20543;-78
2022/11/07 12:21:23;;;;;;;1.48;1.35;;;;;;;;;;10637139;27;20050;-78
2022/11/07 12:26:29;;;;;;;2.15;1.40;;;;;;;;;;10586977;27;20342;-78
2022/11/07 12:31:42;;;;;;;2.30;1.13;;;;;;;;;;10599230;27;20032;-78
2022/11/07 12:36:48;;;;;;;2.03;0.90;;;;;;;;;;10572681;27;20053;-78
2022/11/07 12:41:56;;;;;;;2.55;1.13;;;;;;;;;;10571046;27;20381;-77
2022/11/07 12:47:01;;;;;;;2.65;1.08;;;;;;;;;;10573536;27;20047;-77
2022/11/07 12:52:08;;;;;;;3.45;0.70;;;;;;;;;;10579726;27;20035;-77
2022/11/07 12:57:23;;;;;;;1.15;0.90;;;;;;;;;;10574455;27;20122;-78
2022/11/07 13:02:43;;;;;;;1.23;0.50;;;;;;;;;;10570494;27;20036;-77
2022/11/07 13:07:48;;;;;;;2.45;0.90;;;;;;;;;;10567751;27;20031;-76
2022/11/07 13:12:58;;;;;;;2.85;1.00;;;;;;;;;;10557266;27;20044;-78
2022/11/07 13:18:13;;;;;;;0.98;0.55;;;;;;;;;;10570383;27;20050;-77
2022/11/07 13:23:16;;;;;;;3.53;1.10;;;;;;;;;;10571966;27;20055;-77
2022/11/07 13:28:26;;;;;;;2.15;0.80;;;;;;;;;;10566188;27;20109;-77
2022/11/07 13:33:29;;;;;;;3.03;1.00;;;;;;;;;;10552854;27;20126;-76
2022/11/07 13:38:33;;;;;;;1.08;0.43;;;;;;;;;;10561704;27;20171;-77
2022/11/07 13:43:39;;;;;;;3.40;1.08;;;;;;;;;;10552420;27;20050;-76
2022/11/07 13:48:46;;;;;;;3.33;1.30;;;;;;;;;;10565883;28;20127;-77
2022/11/07 13:53:55;;;;;;;4.57;0.98;;;;;;;;;;10564750;28;20550;-77
2022/11/07 13:59:02;;;;;;;2.50;0.95;;;;;;;;;;10575519;28;20043;-77
2022/11/07 14:04:11;;;;;;;4.35;1.40;;;;;;;;;;10568183;28;20039;-78
2022/11/07 14:09:16;;;;;;;0.88;0.70;;;;;;;;;;10573666;27;20066;-76
2022/11/07 14:14:22;;;;;;;1.02;0.60;;;;;;;;;;10578138;27;20043;-77
2022/11/07 14:19:26;;;;;;;3.30;0.75;;;;;;;;;;10577915;27;20051;-77
2022/11/07 14:24:35;;;;;;;1.50;0.73;;;;;;;;;;10577930;27;20043;-76
2022/11/07 14:29:54;;;;;;;1.00;0.60;;;;;;;;;;10579598;27;20044;-76
2022/11/07 14:34:59;;;;;;;0.85;0.50;;;;;;;;;;10577758;27;20646;-77
2022/11/07 14:40:05;;;;;;;2.47;0.90;;;;;;;;;;10581042;27;20043;-77
2022/11/07 14:45:11;;;;;;;1.55;0.90;;;;;;;;;;10576021;27;20035;-77
2022/11/07 14:50:17;;;;;;;2.42;0.65;;;;;;;;;;10574162;27;20058;-77
2022/11/07 14:55:25;;;;;;;2.35;0.90;;;;;;;;;;10597151;27;20036;-77
2022/11/07 15:00:28;;;;;;;2.97;0.75;;;;;;;;;;10574240;27;20043;-76
2022/11/07 15:05:43;;;;;;;0.55;0.50;;;;;;;;;;10575583;27;20043;-76
2022/11/07 15:10:46;;;;;;;3.47;0.80;;;;;;;;;;10578045;27;20518;-77
2022/11/07 15:15:58;;;;;;;6.82;0.82;;;;;;;;;;10576976;27;20055;-77
2022/11/07 15:21:02;;;;;;;3.20;1.10;;;;;;;;;;10580307;27;20036;-77
2022/11/07 15:26:12;;;;;;;2.83;0.90;;;;;;;;;;10575958;27;20501;-78
2022/11/07 15:31:18;;;;;;;3.67;1.05;;;;;;;;;;10577827;27;20051;-75
2022/11/07 15:36:22;;;;;;;5.60;1.17;;;;;;;;;;10574386;27;20043;-77
2022/11/07 15:41:25;;;;;;;2.22;0.93;;;;;;;;;;10576376;27;20150;-77
2022/11/07 15:46:31;;;;;;;4.20;1.10;;;;;;;;;;10573959;27;20036;-77
2022/11/07 15:51:35;;;;;;;1.60;0.90;;;;;;;;;;10577321;27;20035;-76
2022/11/07 15:56:38;;;;;;;3.28;1.23;;;;;;;;;;10581693;27;20043;-76
2022/11/07 16:01:41;;;;;;;3.40;1.65;;;;;;;;;;10572099;27;20063;-77
2022/11/07 16:06:47;;;;;;;2.42;1.30;;;;;;;;;;10574479;27;20047;-78
2022/11/07 16:11:49;;;;;;;;;;;;;;;;;;10572272;27;20047;-76
2022/11/07 16:16:52;;;;;;;2.45;1.10;;;;;;;;;;10571831;27;19923;-76
2022/11/07 16:21:57;;;;;;;4.07;1.40;;;;;;;;;;10573174;27;20096;-76
2022/11/07 16:26:59;;;;;;;2.15;1.27;;;;;;;;;;10573948;27;20123;-78
2022/11/07 16:32:02;;;;;;;3.13;1.20;;;;;;;;;;10572570;27;20089;-76
2022/11/07 16:37:06;;;;;;;2.85;1.02;;;;;;;;;;10576397;27;20097;-78
2022/11/07 16:42:12;;;;;;;1.27;0.70;;;;;;;;;;10570709;27;20632;-76
2022/11/07 16:47:15;;;;;;;5.22;1.85;;;;;;;;;;10575811;27;20154;-77
2022/11/07 16:52:26;;;;;;;2.15;1.00;;;;;;;;;;10579861;27;20036;-77
2022/11/07 16:57:30;;;;;;;2.70;1.20;;;;;;;;;;10573294;27;20130;-78
2022/11/07 17:02:33;;;;;;;2.53;1.30;;;;;;;;;;10572512;27;20036;-76
2022/11/07 17:07:38;;;;;;;5.78;2.33;;;;;;;;;;10569671;27;20058;-77
2022/11/07 17:12:41;;;;;;;5.78;2.28;;;;;;;;;;10572289;27;20046;-79
2022/11/07 17:17:44;;;;;;;8.20;3.28;;;;;;;;;;10573571;27;20043;-77
2022/11/07 17:22:49;;;;;;;6.82;2.65;;;;;;;;;;10574245;27;20039;-78
2022/11/07 17:27:52;;;;;;;;;;;;;;;;;;10572017;27;20054;-77
2022/11/07 17:32:54;;;;;;;6.93;2.72;;;;;;;;;;10569837;27;20400;-77
2022/11/07 17:37:58;;;;;;;7.95;2.83;;;;;;;;;;10571569;27;20053;-78
2022/11/07 17:43:01;;;;;;;;;;;;;;;;;;10559541;28;20047;-76
2022/11/07 17:48:03;;;;;;;9.45;3.63;;;;;;;;;;10571244;28;19931;-77
2022/11/07 17:53:10;;;;;;;9.60;3.50;;;;;;;;;;10577811;28;20531;-77
2022/11/07 17:58:13;;;;;;;9.70;3.88;;;;;;;;;;10570225;28;20037;-76
2022/11/07 18:03:16;;;;;;;7.07;3.00;;;;;;;;;;10569719;28;20104;-76
2022/11/07 18:08:20;;;;;;;7.63;3.17;;;;;;;;;;10569631;28;20067;-78
2022/11/07 18:13:43;;;;;;;10.73;3.95;;;;;;;;;;10570662;28;20136;-77
2022/11/07 18:18:46;;;;;;;7.80;2.93;;;;;;;;;;10574635;28;20050;-77
2022/11/07 18:23:50;;;;;;;10.55;3.83;;;;;;;;;;10575782;28;20105;-78
2022/11/07 18:28:53;;;;;;;9.38;2.75;;;;;;;;;;10573338;28;20040;-76
2022/11/07 18:33:56;;;;;;;7.55;3.20;;;;;;;;;;10569690;28;21957;-77
2022/11/07 18:39:03;;;;;;;10.63;3.80;;;;;;;;;;10569750;28;20471;-74
2022/11/07 18:44:05;;;;;;;9.82;3.70;;;;;;;;;;10569510;28;20024;-76
2022/11/07 18:49:08;;;;;;;10.32;3.63;;;;;;;;;;10573487;28;20538;-76
2022/11/07 18:54:13;;;;;;;5.88;1.98;;;;;;;;;;10578415;27;20773;-78
2022/11/07 18:59:16;;;;;;;8.88;3.53;;;;;;;;;;10578795;27;20047;-76
2022/11/07 19:04:19;;;;;;;9.85;3.28;;;;;;;;;;10577973;27;20039;-77
2022/11/07 19:09:23;;;;;;;11.45;4.95;;;;;;;;;;10578219;27;20047;-76
2022/11/07 19:14:32;;;;;;;9.02;3.63;;;;;;;;;;10575197;27;20039;-75
2022/11/07 19:19:35;;;;;;;11.85;3.83;;;;;;;;;;10576704;27;20369;-76
2022/11/07 19:24:39;;;;;;;8.95;3.20;;;;;;;;;;10573947;27;20047;-76
2022/11/07 19:29:41;;;;;;;;;;;;;;;;;;10573650;27;21687;-75
2022/11/07 19:34:44;;;;;;;10.20;3.60;;;;;;;;;;10575824;27;19939;-76
2022/11/07 19:39:48;;;;;;;8.93;4.00;;;;;;;;;;10573636;27;20047;-76
2022/11/07 19:44:51;;;;;;;9.52;3.28;;;;;;;;;;10574609;27;20043;-76
2022/11/07 19:49:58;;;;;;;5.07;2.63;;;;;;;;;;10573900;27;20039;-76
2022/11/07 19:55:02;;;;;;;11.85;5.05;;;;;;;;;;10575715;27;20154;-77
2022/11/07 20:00:06;;;;;;;8.00;3.63;;;;;;;;;;10577884;27;20047;-76
2022/11/07 20:05:09;;;;;;;7.65;2.65;;;;;;;;;;10573238;27;20036;-75
2022/11/07 20:10:15;;;;;;;13.00;4.50;;;;;;;;;;10572809;27;20043;-77
2022/11/07 20:15:17;;;;;;;;;;;;;;;;;;10575552;27;20036;-77
2022/11/07 20:20:20;;;;;;;13.10;4.90;;;;;;;;;;10577849;27;19943;-76
2022/11/07 20:25:24;;;;;;;8.43;3.85;;;;;;;;;;10573569;27;20163;-76
2022/11/07 20:30:27;;;;;;;;;;;;;;;;;;10574904;27;20068;-76
2022/11/07 20:35:29;;;;;;;9.55;3.47;;;;;;;;;;10573645;27;20003;-76
2022/11/07 20:40:33;;;;;;;10.15;3.45;;;;;;;;;;10572345;27;20139;-77
2022/11/07 20:45:36;;;;;;;;;;;;;;;;;;10571622;27;20035;-76
2022/11/07 20:50:39;;;;;;;7.97;3.80;;;;;;;;;;10570025;27;19927;-76
2022/11/07 20:55:43;;;;;;;9.05;3.55;;;;;;;;;;10578262;27;20051;-75
2022/11/07 21:00:48;;;;;;;3.35;2.08;;;;;;;;;;10570484;27;20039;-76
2022/11/07 21:05:50;;;;;;;2.80;1.25;;;;;;;;;;10568597;27;20448;-76
2022/11/07 21:10:55;;;;;;;7.72;3.00;;;;;;;;;;10570555;27;20464;-76
2022/11/07 21:15:58;;;;;;;4.32;1.90;;;;;;;;;;10570567;27;20506;-75
2022/11/07 21:21:07;;;;;;;4.93;2.22;;;;;;;;;;10570261;27;20035;-75
2022/11/07 21:26:14;;;;;;;6.32;2.58;;;;;;;;;;10571288;27;20031;-76
2022/11/07 21:31:18;;;;;;;4.85;2.50;;;;;;;;;;10571093;27;20046;-76
2022/11/07 21:36:22;;;;;;;4.07;1.45;;;;;;;;;;10572641;27;20243;-75
2022/11/07 21:41:30;;;;;;;4.30;2.10;;;;;;;;;;10570447;27;20047;-75
2022/11/07 21:46:34;;;;;;;6.47;3.25;;;;;;;;;;10566899;27;20039;-75
2022/11/07 21:51:37;;;;;;;10.57;4.00;;;;;;;;;;10576609;28;20040;-75
2022/11/07 21:56:41;;;;;;;4.18;2.25;;;;;;;;;;10570074;28;20868;-76
2022/11/07 22:01:47;;;;;;;4.78;2.08;;;;;;;;;;10568474;28;20812;-76
2022/11/07 22:06:51;;;;;;;4.25;1.85;;;;;;;;;;10571718;28;20038;-76
2022/11/07 22:11:55;;;;;;;8.45;2.65;;;;;;;;;;10570358;28;20047;-75
2022/11/07 22:16:57;;;;;;;4.60;1.58;;;;;;;;;;10567138;28;20418;-76
2022/11/07 22:22:00;;;;;;;3.35;2.17;;;;;;;;;;10559875;28;20055;-76
2022/11/07 22:27:04;;;;;;;6.65;3.00;;;;;;;;;;10570364;28;20051;-77
2022/11/07 22:32:07;;;;;;;8.07;2.75;;;;;;;;;;10577321;27;20066;-77
2022/11/07 22:37:10;;;;;;;5.55;2.65;;;;;;;;;;10576834;27;20480;-76
2022/11/07 22:42:14;;;;;;;5.97;2.72;;;;;;;;;;10574257;27;20063;-77
2022/11/07 22:47:24;;;;;;;5.45;2.80;;;;;;;;;;10581508;27;20039;-76
2022/11/07 22:52:26;;;;;;;6.97;3.10;;;;;;;;;;10578271;27;20051;-75
2022/11/07 22:57:30;;;;;;;5.05;2.47;;;;;;;;;;10574483;27;20036;-77
2022/11/07 23:02:33;;;;;;;6.32;2.80;;;;;;;;;;10575052;27;20051;-77
2022/11/07 23:07:35;;;;;;;5.53;2.30;;;;;;;;;;10575103;27;20512;-79
2022/11/07 23:12:40;;;;;;;4.65;2.20;;;;;;;;;;10575440;27;20032;-76
2022/11/07 23:17:42;;;;;;;5.88;2.20;;;;;;;;;;10571702;27;20040;-77
2022/11/07 23:22:45;;;;;;;1.55;0.85;;;;;;;;;;10576775;27;20062;-76
2022/11/07 23:27:49;;;;;;;3.08;1.85;;;;;;;;;;10575090;27;20954;-77
2022/11/07 23:32:51;;;;;;;5.22;2.05;;;;;;;;;;10574574;27;20047;-77
2022/11/07 23:37:54;;;;;;;3.85;1.63;;;;;;;;;;10577108;27;20039;-76
2022/11/07 23:42:59;;;;;;;2.40;1.30;;;;;;;;;;10560861;27;20039;-77
